KECG/ECG METAR and TAF weather

Enter ICAO airport designator
Station Type Date Time Source
KECG METAR 2019/08/22 01:54 UTC NOAA

KECG 220154Z 21011KT 10SM CLR 28/24 A2997 RMK AO2 SLP147 T02830239


Station Type Date Time Source
KECG Decoded METAR 2019/08/22 01:54 UTC NOAA

Station name not available
Aug 21, 2019 - 09:54 PM EDT / 2019.08.22 0154 UTC
Wind: from the SSW (210 degrees) at 13 MPH (11 KT):0
Visibility: 10 mile(s):0
Sky conditions: clear
Temperature: 82.9 F (28.3 C)
Dew Point: 75.0 F (23.9 C)
Relative Humidity: 77%
Pressure (altimeter): 29.97 in. Hg (1014 hPa)
ob: KECG 220154Z 21011KT 10SM CLR 28/24 A2997 RMK AO2 SLP147 T02830239
cycle: 2

Station Type Date Time Source
KECG TAF 2019/08/21 20:12 UTC NOAA

TAF
AMD KECG 212009Z 2120/2218 20010KT P6SM VCSH BKN035
FM212300 21010KT P6SM SCT250
FM220800 23008KT P6SM SKC

Example: see airport list